sensor_id;sensor_type;location;lat;lon;timestamp;pressure;altitude;pressure_sealevel;temperature
82400;BMP280;72039;48.812;8.198;2023-11-18T03:07:29;101301.75;;;6.92
82400;BMP280;72039;48.812;8.198;2023-11-18T03:09:54;101292.75;;;6.92
82400;BMP280;72039;48.812;8.198;2023-11-18T03:12:23;101295.69;;;6.94
82400;BMP280;72039;48.812;8.198;2023-11-18T03:14:48;101288.88;;;6.95
82400;BMP280;72039;48.812;8.198;2023-11-18T03:17:14;101286.84;;;6.95
82400;BMP280;72039;48.812;8.198;2023-11-18T03:19:40;101300.66;;;6.95
82400;BMP280;72039;48.812;8.198;2023-11-18T03:22:06;101300.66;;;6.95
82400;BMP280;72039;48.812;8.198;2023-11-18T03:24:32;101303.41;;;6.95
82400;BMP280;72039;48.812;8.198;2023-11-18T03:26:58;101312.25;;;6.94
82400;BMP280;72039;48.812;8.198;2023-11-18T03:29:24;101309.50;;;6.94
82400;BMP280;72039;48.812;8.198;2023-11-18T03:31:52;101317.59;;;6.92
82400;BMP280;72039;48.812;8.198;2023-11-18T03:34:24;101318.91;;;6.91
82400;BMP280;72039;48.812;8.198;2023-11-18T03:36:52;101315.28;;;6.88
82400;BMP280;72039;48.812;8.198;2023-11-18T03:39:23;101312.72;;;6.83
82400;BMP280;72039;48.812;8.198;2023-11-18T03:41:53;101315.13;;;6.79
82400;BMP280;72039;48.812;8.198;2023-11-18T03:44:18;101317.44;;;6.72
82400;BMP280;72039;48.812;8.198;2023-11-18T03:46:46;101312.31;;;6.69
82400;BMP280;72039;48.812;8.198;2023-11-18T03:49:12;101320.22;;;6.65
82400;BMP280;72039;48.812;8.198;2023-11-18T03:51:39;101311.22;;;6.64
82400;BMP280;72039;48.812;8.198;2023-11-18T03:54:05;101311.94;;;6.65
82400;BMP280;72039;48.812;8.198;2023-11-18T03:56:31;101305.72;;;6.64
82400;BMP280;72039;48.812;8.198;2023-11-18T03:58:57;101310.50;;;6.64
82400;BMP280;72039;48.812;8.198;2023-11-18T04:01:24;101317.91;;;6.61
82400;BMP280;72039;48.812;8.198;2023-11-18T04:03:52;101325.09;;;6.57
82400;BMP280;72039;48.812;8.198;2023-11-18T04:06:18;101322.00;;;6.52
82400;BMP280;72039;48.812;8.198;2023-11-18T04:08:47;101324.56;;;6.50
82400;BMP280;72039;48.812;8.198;2023-11-18T04:11:13;101329.94;;;6.48
82400;BMP280;72039;48.812;8.198;2023-11-18T04:13:40;101328.31;;;6.45
82400;BMP280;72039;48.812;8.198;2023-11-18T04:16:15;101329.63;;;6.44
82400;BMP280;72039;48.812;8.198;2023-11-18T04:18:43;101335.13;;;6.44
82400;BMP280;72039;48.812;8.198;2023-11-18T04:21:09;101328.88;;;6.44
82400;BMP280;72039;48.812;8.198;2023-11-18T04:23:38;101335.69;;;6.43
82400;BMP280;72039;48.812;8.198;2023-11-18T04:26:07;101335.50;;;6.41
82400;BMP280;72039;48.812;8.198;2023-11-18T04:28:36;101336.06;;;6.39
82400;BMP280;72039;48.812;8.198;2023-11-18T04:31:02;101339.94;;;6.36
82400;BMP280;72039;48.812;8.198;2023-11-18T04:33:28;101327.50;;;6.35
82400;BMP280;72039;48.812;8.198;2023-11-18T04:35:55;101326.75;;;6.35
82400;BMP280;72039;48.812;8.198;2023-11-18T04:38:24;101330.06;;;6.33
82400;BMP280;72039;48.812;8.198;2023-11-18T04:40:53;101323.41;;;6.36
82400;BMP280;72039;48.812;8.198;2023-11-18T04:43:22;101320.66;;;6.36
82400;BMP280;72039;48.812;8.198;2023-11-18T04:45:51;101317.19;;;6.36
82400;BMP280;72039;48.812;8.198;2023-11-18T04:48:19;101321.97;;;6.35
82400;BMP280;72039;48.812;8.198;2023-11-18T04:50:46;101330.06;;;6.33
82400;BMP280;72039;48.812;8.198;2023-11-18T04:53:12;101319.03;;;6.33
82400;BMP280;72039;48.812;8.198;2023-11-18T04:55:39;101320.16;;;6.30
82400;BMP280;72039;48.812;8.198;2023-11-18T04:58:07;101325.66;;;6.30
82400;BMP280;72039;48.812;8.198;2023-11-18T05:00:37;101327.16;;;6.31
82400;BMP280;72039;48.812;8.198;2023-11-18T05:03:08;101310.78;;;6.33
82400;BMP280;72039;48.812;8.198;2023-11-18T05:05:38;101310.94;;;6.35
82400;BMP280;72039;48.812;8.198;2023-11-18T05:08:07;101308.91;;;6.36
82400;BMP280;72039;48.812;8.198;2023-11-18T05:10:34;101309.63;;;6.36
82400;BMP280;72039;48.812;8.198;2023-11-18T05:13:01;101302.69;;;6.35
82400;BMP280;72039;48.812;8.198;2023-11-18T05:15:29;101311.06;;;6.37
82400;BMP280;72039;48.812;8.198;2023-11-18T05:17:57;101314.59;;;6.38
82400;BMP280;72039;48.812;8.198;2023-11-18T05:20:24;101311.06;;;6.37
82400;BMP280;72039;48.812;8.198;2023-11-18T05:22:50;101310.19;;;6.35
82400;BMP280;72039;48.812;8.198;2023-11-18T05:25:15;101313.34;;;6.31
82400;BMP280;72039;48.812;8.198;2023-11-18T05:27:41;101312.63;;;6.31
82400;BMP280;72039;48.812;8.198;2023-11-18T05:30:10;101314.63;;;6.30
82400;BMP280;72039;48.812;8.198;2023-11-18T05:32:36;101313.91;;;6.29
82400;BMP280;72039;48.812;8.198;2023-11-18T05:35:03;101309.13;;;6.30
82400;BMP280;72039;48.812;8.198;2023-11-18T05:37:31;101302.88;;;6.29
82400;BMP280;72039;48.812;8.198;2023-11-18T05:40:01;101300.13;;;6.29
82400;BMP280;72039;48.812;8.198;2023-11-18T05:42:33;101292.44;;;6.28
82400;BMP280;72039;48.812;8.198;2023-11-18T05:45:00;101290.22;;;6.26
82400;BMP280;72039;48.812;8.198;2023-11-18T05:47:26;101303.09;;;6.24
82400;BMP280;72039;48.812;8.198;2023-11-18T05:49:56;101292.63;;;6.22
82400;BMP280;72039;48.812;8.198;2023-11-18T05:52:22;101298.72;;;6.21
82400;BMP280;72039;48.812;8.198;2023-11-18T05:54:50;101305.53;;;6.20
82400;BMP280;72039;48.812;8.198;2023-11-18T05:57:15;101294.34;;;6.18
82400;BMP280;72039;48.812;8.198;2023-11-18T05:59:42;101290.84;;;6.17
82400;BMP280;72039;48.812;8.198;2023-11-18T06:02:09;101293.97;;;6.14
82400;BMP280;72039;48.812;8.198;2023-11-18T06:04:40;101293.81;;;6.12
82400;BMP280;72039;48.812;8.198;2023-11-18T06:07:12;101295.34;;;6.05
82400;BMP280;72039;48.812;8.198;2023-11-18T06:12:09;101290.94;;;6.02
82400;BMP280;72039;48.812;8.198;2023-11-18T06:14:37;101291.66;;;6.02
82400;BMP280;72039;48.812;8.198;2023-11-18T06:17:05;101283.41;;;6.02
82400;BMP280;72039;48.812;8.198;2023-11-18T06:19:36;101298.66;;;6.03
82400;BMP280;72039;48.812;8.198;2023-11-18T06:22:02;101297.94;;;6.03
82400;BMP280;72039;48.812;8.198;2023-11-18T06:24:31;101299.78;;;6.00
82400;BMP280;72039;48.812;8.198;2023-11-18T06:26:56;101305.13;;;5.98
82400;BMP280;72039;48.812;8.198;2023-11-18T06:32:43;101313.03;;;5.94
82400;BMP280;72039;48.812;8.198;2023-11-18T06:38:30;101307.50;;;5.94
82400;BMP280;72039;48.812;8.198;2023-11-18T06:44:17;101291.16;;;5.96
82400;BMP280;72039;48.812;8.198;2023-11-18T06:50:10;101279.97;;;5.94
82400;BMP280;72039;48.812;8.198;2023-11-18T06:56:02;101283.44;;;5.95
82400;BMP280;72039;48.812;8.198;2023-11-18T07:01:51;101288.94;;;5.95
82400;BMP280;72039;48.812;8.198;2023-11-18T07:07:38;101293.34;;;5.98
82400;BMP280;72039;48.812;8.198;2023-11-18T07:23:35;101296.41;;;6.10
82400;BMP280;72039;48.812;8.198;2023-11-18T07:29:22;101314.41;;;6.11
82400;BMP280;72039;48.812;8.198;2023-11-18T07:35:10;101300.78;;;6.13
82400;BMP280;72039;48.812;8.198;2023-11-18T07:41:00;101295.97;;;6.21
82400;BMP280;72039;48.812;8.198;2023-11-18T07:46:49;101277.00;;;6.25
82400;BMP280;72039;48.812;8.198;2023-11-18T07:52:36;101281.22;;;6.26
82400;BMP280;72039;48.812;8.198;2023-11-18T07:58:23;101300.84;;;6.30
82400;BMP280;72039;48.812;8.198;2023-11-18T08:04:10;101305.00;;;-146.04
82400;BMP280;72039;48.812;8.198;2023-11-18T08:09:57;101293.19;;;6.46
82400;BMP280;72039;48.812;8.198;2023-11-18T08:15:47;101281.69;;;6.57
82400;BMP280;72039;48.812;8.198;2023-11-18T08:28:19;101272.06;;;6.66
82400;BMP280;72039;48.812;8.198;2023-11-18T08:34:09;101282.84;;;6.71
82400;BMP280;72039;48.812;8.198;2023-11-18T08:39:59;101267.34;;;6.76
82400;BMP280;72039;48.812;8.198;2023-11-18T08:45:51;101249.03;;;6.88
82400;BMP280;72039;48.812;8.198;2023-11-18T08:51:41;101242.53;;;6.93
82400;BMP280;72039;48.812;8.198;2023-11-18T08:57:28;101228.31;;;6.97
82400;BMP280;72039;48.812;8.198;2023-11-18T09:03:49;101235.03;;;7.04
82400;BMP280;72039;48.812;8.198;2023-11-18T09:09:43;101239.75;;;7.11
82400;BMP280;72039;48.812;8.198;2023-11-18T09:18:52;101234.91;;;7.29
82400;BMP280;72039;48.812;8.198;2023-11-18T09:28:29;101248.22;;;7.67
82400;BMP280;72039;48.812;8.198;2023-11-18T09:34:18;101237.69;;;7.83
82400;BMP280;72039;48.812;8.198;2023-11-18T09:40:29;101234.50;;;7.96
82400;BMP280;72039;48.812;8.198;2023-11-18T09:46:46;101250.72;;;8.09
82400;BMP280;72039;48.812;8.198;2023-11-18T10:01:57;101251.19;;;8.25
82400;BMP280;72039;48.812;8.198;2023-11-18T10:04:56;101260.22;;;8.26
82400;BMP280;72039;48.812;8.198;2023-11-18T10:10:45;101251.91;;;8.26
82400;BMP280;72039;48.812;8.198;2023-11-18T10:16:31;101255.53;;;8.28
82400;BMP280;72039;48.812;8.198;2023-11-18T10:22:22;101247.41;;;8.30
82400;BMP280;72039;48.812;8.198;2023-11-18T10:31:32;101265.63;;;8.33
82400;BMP280;72039;48.812;8.198;2023-11-18T10:37:22;101260.25;;;8.36
82400;BMP280;72039;48.812;8.198;2023-11-18T10:43:10;101269.84;;;8.35
82400;BMP280;72039;48.812;8.198;2023-11-18T10:48:57;101256.75;;;8.35
82400;BMP280;72039;48.812;8.198;2023-11-18T10:54:55;101244.22;;;8.34
82400;BMP280;72039;48.812;8.198;2023-11-18T11:06:37;101251.97;;;8.36
82400;BMP280;72039;48.812;8.198;2023-11-18T11:12:29;101249.19;;;8.36
82400;BMP280;72039;48.812;8.198;2023-11-18T11:18:20;101225.59;;;8.35
82400;BMP280;72039;48.812;8.198;2023-11-18T11:24:01;101206.06;;;8.32
82400;BMP280;72039;48.812;8.198;2023-11-18T11:33:55;101185.41;;;8.33
82400;BMP280;72039;48.812;8.198;2023-11-18T11:40:36;101151.06;;;8.37
82400;BMP280;72039;48.812;8.198;2023-11-18T11:46:26;101154.13;;;8.41
82400;BMP280;72039;48.812;8.198;2023-11-18T12:08:59;101146.09;;;8.45
82400;BMP280;72039;48.812;8.198;2023-11-18T12:21:03;101113.19;;;8.49
82400;BMP280;72039;48.812;8.198;2023-11-18T12:26:50;101116.97;;;8.53
82400;BMP280;72039;48.812;8.198;2023-11-18T12:48:44;101056.63;;;8.71
82400;BMP280;72039;48.812;8.198;2023-11-18T12:54:33;101052.69;;;8.74
82400;BMP280;72039;48.812;8.198;2023-11-18T13:00:20;101045.88;;;8.75
82400;BMP280;72039;48.812;8.198;2023-11-18T13:06:13;101046.00;;;8.77
82400;BMP280;72039;48.812;8.198;2023-11-18T13:12:02;101034.59;;;8.83
82400;BMP280;72039;48.812;8.198;2023-11-18T13:18:12;101032.13;;;8.87
82400;BMP280;72039;48.812;8.198;2023-11-18T13:23:59;101015.03;;;8.91
82400;BMP280;72039;48.812;8.198;2023-11-18T13:37:12;100974.41;;;8.93
82400;BMP280;72039;48.812;8.198;2023-11-18T13:43:03;100968.41;;;8.97
82400;BMP280;72039;48.812;8.198;2023-11-18T13:48:54;100946.25;;;8.97
82400;BMP280;72039;48.812;8.198;2023-11-18T13:54:42;100942.19;;;8.98
82400;BMP280;72039;48.812;8.198;2023-11-18T14:00:31;100934.13;;;9.02
82400;BMP280;72039;48.812;8.198;2023-11-18T14:06:21;100911.53;;;9.06
82400;BMP280;72039;48.812;8.198;2023-11-18T14:12:09;100896.16;;;9.14
82400;BMP280;72039;48.812;8.198;2023-11-18T14:17:56;100890.03;;;9.37
82400;BMP280;72039;48.812;8.198;2023-11-18T14:23:44;100884.41;;;9.59
82400;BMP280;72039;48.812;8.198;2023-11-18T14:29:35;100898.03;;;9.55
82400;BMP280;72039;48.812;8.198;2023-11-18T14:39:44;100911.81;;;9.43
82400;BMP280;72039;48.812;8.198;2023-11-18T14:45:32;100911.56;;;9.39
82400;BMP280;72039;48.812;8.198;2023-11-18T14:51:21;100912.63;;;9.34
82400;BMP280;72039;48.812;8.198;2023-11-18T14:57:12;100901.28;;;9.30
82400;BMP280;72039;48.812;8.198;2023-11-18T15:02:59;100910.19;;;9.28
82400;BMP280;72039;48.812;8.198;2023-11-18T15:08:50;100917.66;;;9.26
82400;BMP280;72039;48.812;8.198;2023-11-18T15:14:39;100898.00;;;9.21
82400;BMP280;72039;48.812;8.198;2023-11-18T15:20:30;100885.44;;;9.20
82400;BMP280;72039;48.812;8.198;2023-11-18T15:26:21;100888.84;;;9.19
82400;BMP280;72039;48.812;8.198;2023-11-18T15:32:09;100889.44;;;9.17
82400;BMP280;72039;48.812;8.198;2023-11-18T15:48:02;100852.06;;;9.07
82400;BMP280;72039;48.812;8.198;2023-11-18T16:03:47;100853.19;;;8.92
82400;BMP280;72039;48.812;8.198;2023-11-18T16:16:08;100837.03;;;8.88
82400;BMP280;72039;48.812;8.198;2023-11-18T16:21:56;100836.31;;;8.88
82400;BMP280;72039;48.812;8.198;2023-11-18T16:27:47;100811.28;;;8.86
82400;BMP280;72039;48.812;8.198;2023-11-18T16:33:37;100801.53;;;8.85
82400;BMP280;72039;48.812;8.198;2023-11-18T16:39:43;100785.50;;;8.83
82400;BMP280;72039;48.812;8.198;2023-11-18T16:42:46;100770.94;;;8.83
82400;BMP280;72039;48.812;8.198;2023-11-18T16:48:33;100755.06;;;8.83
82400;BMP280;72039;48.812;8.198;2023-11-18T16:54:21;100738.31;;;8.81
82400;BMP280;72039;48.812;8.198;2023-11-18T17:00:10;100729.44;;;8.83
82400;BMP280;72039;48.812;8.198;2023-11-18T17:06:23;100705.25;;;8.83
82400;BMP280;72039;48.812;8.198;2023-11-18T17:12:10;100676.25;;;8.84
82400;BMP280;72039;48.812;8.198;2023-11-18T17:17:56;100652.22;;;8.87
82400;BMP280;72039;48.812;8.198;2023-11-18T17:26:59;100699.41;;;8.89
82400;BMP280;72039;48.812;8.198;2023-11-18T17:32:48;100696.00;;;8.90
82400;BMP280;72039;48.812;8.198;2023-11-18T17:38:38;100662.31;;;8.94
82400;BMP280;72039;48.812;8.198;2023-11-18T17:44:25;100676.31;;;9.08
82400;BMP280;72039;48.812;8.198;2023-11-18T17:50:14;100679.44;;;9.14
82400;BMP280;72039;48.812;8.198;2023-11-18T17:52:43;100679.44;;;9.14
82400;BMP280;72039;48.812;8.198;2023-11-18T17:55:10;100676.09;;;9.15
82400;BMP280;72039;48.812;8.198;2023-11-18T17:57:37;100678.97;;;9.17
82400;BMP280;72039;48.812;8.198;2023-11-18T18:00:04;100663.81;;;9.18
82400;BMP280;72039;48.812;8.198;2023-11-18T18:02:37;100657.78;;;9.22
82400;BMP280;72039;48.812;8.198;2023-11-18T18:05:03;100662.75;;;9.23
82400;BMP280;72039;48.812;8.198;2023-11-18T18:07:31;100661.41;;;9.24
82400;BMP280;72039;48.812;8.198;2023-11-18T18:09:57;100658.03;;;9.26
82400;BMP280;72039;48.812;8.198;2023-11-18T18:12:22;100649.13;;;9.28
82400;BMP280;72039;48.812;8.198;2023-11-18T18:14:48;100647.06;;;9.28
82400;BMP280;72039;48.812;8.198;2023-11-18T18:17:18;100655.50;;;9.30
82400;BMP280;72039;48.812;8.198;2023-11-18T18:19:44;100639.63;;;9.31
82400;BMP280;72039;48.812;8.198;2023-11-18T18:22:10;100647.19;;;9.30
82400;BMP280;72039;48.812;8.198;2023-11-18T18:24:36;100647.19;;;9.30
82400;BMP280;72039;48.812;8.198;2023-11-18T18:27:01;100639.00;;;9.32
82400;BMP280;72039;48.812;8.198;2023-11-18T18:29:26;100645.28;;;9.33
82400;BMP280;72039;48.812;8.198;2023-11-18T18:31:54;100638.41;;;9.34
82400;BMP280;72039;48.812;8.198;2023-11-18T18:34:21;100615.66;;;9.35
82400;BMP280;72039;48.812;8.198;2023-11-18T18:36:47;100610.84;;;9.36
82400;BMP280;72039;48.812;8.198;2023-11-18T18:39:12;100611.56;;;9.36
82400;BMP280;72039;48.812;8.198;2023-11-18T18:41:38;100608.06;;;9.36
82400;BMP280;72039;48.812;8.198;2023-11-18T18:44:04;100612.28;;;9.37
82400;BMP280;72039;48.812;8.198;2023-11-18T18:46:29;100599.75;;;9.36
82400;BMP280;72039;48.812;8.198;2023-11-18T18:48:59;100600.56;;;9.38
82400;BMP280;72039;48.812;8.198;2023-11-18T18:51:25;100578.53;;;9.40
82400;BMP280;72039;48.812;8.198;2023-11-18T18:53:50;100559.88;;;9.41
82400;BMP280;72039;48.812;8.198;2023-11-18T18:56:18;100551.56;;;9.41
82400;BMP280;72039;48.812;8.198;2023-11-18T18:58:43;100534.34;;;9.42
82400;BMP280;72039;48.812;8.198;2023-11-18T19:01:09;100520.00;;;9.46
82400;BMP280;72039;48.812;8.198;2023-11-18T19:03:37;100514.56;;;9.48
82400;BMP280;72039;48.812;8.198;2023-11-18T19:06:06;100520.22;;;9.50
82400;BMP280;72039;48.812;8.198;2023-11-18T19:08:33;100534.91;;;9.53
82400;BMP280;72039;48.812;8.198;2023-11-18T19:11:02;100539.28;;;9.56
82400;BMP280;72039;48.812;8.198;2023-11-18T19:13:29;100517.31;;;9.60
82400;BMP280;72039;48.812;8.198;2023-11-18T19:15:57;100527.91;;;9.63
82400;BMP280;72039;48.812;8.198;2023-11-18T19:18:23;100515.59;;;9.66
82400;BMP280;72039;48.812;8.198;2023-11-18T19:20:48;100539.44;;;9.71
82400;BMP280;72039;48.812;8.198;2023-11-18T19:23:13;100543.06;;;9.74
82400;BMP280;72039;48.812;8.198;2023-11-18T19:25:41;100553.41;;;9.74
82400;BMP280;72039;48.812;8.198;2023-11-18T19:28:06;100561.75;;;9.74
82400;BMP280;72039;48.812;8.198;2023-11-18T19:30:35;100552.81;;;9.75
82400;BMP280;72039;48.812;8.198;2023-11-18T19:33:00;100545.19;;;9.76
82400;BMP280;72039;48.812;8.198;2023-11-18T19:35:26;100537.00;;;9.78
82400;BMP280;72039;48.812;8.198;2023-11-18T19:37:54;100524.00;;;9.80
82400;BMP280;72039;48.812;8.198;2023-11-18T19:40:20;100513.75;;;9.83
82400;BMP280;72039;48.812;8.198;2023-11-18T19:42:49;100497.13;;;9.83
82400;BMP280;72039;48.812;8.198;2023-11-18T19:45:14;100470.22;;;9.85
82400;BMP280;72039;48.812;8.198;2023-11-18T19:47:39;100442.72;;;9.89
82400;BMP280;72039;48.812;8.198;2023-11-18T19:50:08;100417.78;;;9.89
82400;BMP280;72039;48.812;8.198;2023-11-18T19:52:34;100398.50;;;9.91
82400;BMP280;72039;48.812;8.198;2023-11-18T19:54:59;100412.44;;;9.93
82400;BMP280;72039;48.812;8.198;2023-11-18T19:57:24;100438.81;;;9.94
82400;BMP280;72039;48.812;8.198;2023-11-18T19:59:52;100429.91;;;9.96
82400;BMP280;72039;48.812;8.198;2023-11-18T20:02:18;100427.25;;;9.98
82400;BMP280;72039;48.812;8.198;2023-11-18T20:04:43;100422.41;;;9.99
82400;BMP280;72039;48.812;8.198;2023-11-18T20:07:13;100417.59;;;9.99
82400;BMP280;72039;48.812;8.198;2023-11-18T20:09:41;100414.09;;;9.99
82400;BMP280;72039;48.812;8.198;2023-11-18T20:12:07;100389.88;;;9.99
82400;BMP280;72039;48.812;8.198;2023-11-18T20:14:34;100387.19;;;10.01
82400;BMP280;72039;48.812;8.198;2023-11-18T20:17:00;100378.88;;;10.01
82400;BMP280;72039;48.812;8.198;2023-11-18T20:19:26;100394.19;;;10.02
82400;BMP280;72039;48.812;8.198;2023-11-18T20:21:55;100384.53;;;10.03
82400;BMP280;72039;48.812;8.198;2023-11-18T20:24:20;100379.22;;;10.07
82400;BMP280;72039;48.812;8.198;2023-11-18T20:26:48;100375.09;;;10.08
82400;BMP280;72039;48.812;8.198;2023-11-18T20:29:16;100371.09;;;10.11
82400;BMP280;72039;48.812;8.198;2023-11-18T20:31:41;100364.31;;;10.14
82400;BMP280;72039;48.812;8.198;2023-11-18T20:34:08;100365.78;;;10.15
82400;BMP280;72039;48.812;8.198;2023-11-18T20:36:36;100364.31;;;10.14
82400;BMP280;72039;48.812;8.198;2023-11-18T20:39:06;100374.09;;;10.15
82400;BMP280;72039;48.812;8.198;2023-11-18T20:41:32;100385.19;;;10.15
82400;BMP280;72039;48.812;8.198;2023-11-18T20:43:57;100382.41;;;10.15
82400;BMP280;72039;48.812;8.198;2023-11-18T20:46:22;100371.94;;;10.14
82400;BMP280;72039;48.812;8.198;2023-11-18T20:48:48;100391.94;;;10.12
82400;BMP280;72039;48.812;8.198;2023-11-18T20:51:18;100394.72;;;10.12
82400;BMP280;72039;48.812;8.198;2023-11-18T20:53:44;100409.84;;;10.09
82400;BMP280;72039;48.812;8.198;2023-11-18T20:56:09;100431.19;;;10.07
82400;BMP280;72039;48.812;8.198;2023-11-18T20:58:34;100422.84;;;10.07
82400;BMP280;72039;48.812;8.198;2023-11-18T21:01:02;100426.13;;;10.03
82400;BMP280;72039;48.812;8.198;2023-11-18T21:03:31;100426.66;;;10.00
82400;BMP280;72039;48.812;8.198;2023-11-18T21:05:57;100442.44;;;9.97
82400;BMP280;72039;48.812;8.198;2023-11-18T21:08:24;100433.19;;;9.92
82400;BMP280;72039;48.812;8.198;2023-11-18T21:10:50;100435.75;;;9.88
82400;BMP280;72039;48.812;8.198;2023-11-18T21:13:18;100457.81;;;9.86
82400;BMP280;72039;48.812;8.198;2023-11-18T21:15:43;100447.22;;;9.83
82400;BMP280;72039;48.812;8.198;2023-11-18T21:18:24;100460.97;;;9.81
82400;BMP280;72039;48.812;8.198;2023-11-18T21:20:52;100471.94;;;9.79
82400;BMP280;72039;48.812;8.198;2023-11-18T21:23:20;100466.41;;;9.79
82400;BMP280;72039;48.812;8.198;2023-11-18T21:25:45;100462.06;;;9.76
82400;BMP280;72039;48.812;8.198;2023-11-18T21:28:11;100458.56;;;9.75
82400;BMP280;72039;48.812;8.198;2023-11-18T21:30:36;100466.16;;;9.75
82400;BMP280;72039;48.812;8.198;2023-11-18T21:33:01;100455.81;;;9.75
82400;BMP280;72039;48.812;8.198;2023-11-18T21:35:31;100450.16;;;9.73
82400;BMP280;72039;48.812;8.198;2023-11-18T21:37:56;100452.09;;;9.70
82400;BMP280;72039;48.812;8.198;2023-11-18T21:40:22;100463.78;;;9.69
82400;BMP280;72039;48.812;8.198;2023-11-18T21:42:50;100447.16;;;9.69
82400;BMP280;72039;48.812;8.198;2023-11-18T21:45:19;100440.78;;;9.66
82400;BMP280;72039;48.812;8.198;2023-11-18T21:47:51;100447.03;;;9.67
82400;BMP280;72039;48.812;8.198;2023-11-18T21:50:23;100447.66;;;9.65
82400;BMP280;72039;48.812;8.198;2023-11-18T21:52:50;100435.13;;;9.64
82400;BMP280;72039;48.812;8.198;2023-11-18T21:55:16;100416.38;;;9.63
82400;BMP280;72039;48.812;8.198;2023-11-18T21:57:42;100411.41;;;9.61
82400;BMP280;72039;48.812;8.198;2023-11-18T22:00:12;100400.22;;;9.59
82400;BMP280;72039;48.812;8.198;2023-11-18T22:02:43;100394.56;;;9.57
82400;BMP280;72039;48.812;8.198;2023-11-18T22:05:14;100377.84;;;9.55
82400;BMP280;72039;48.812;8.198;2023-11-18T22:07:40;100384.81;;;9.56
82400;BMP280;72039;48.812;8.198;2023-11-18T22:10:09;100388.94;;;9.55
82400;BMP280;72039;48.812;8.198;2023-11-18T22:12:36;100375.16;;;9.57
82400;BMP280;72039;48.812;8.198;2023-11-18T22:15:01;100375.88;;;9.58
82400;BMP280;72039;48.812;8.198;2023-11-18T22:17:29;100371.06;;;9.58
82400;BMP280;72039;48.812;8.198;2023-11-18T22:19:54;100364.19;;;9.59
82400;BMP280;72039;48.812;8.198;2023-11-18T22:22:20;100370.44;;;9.60
82400;BMP280;72039;48.812;8.198;2023-11-18T22:24:48;100376.13;;;9.62
82400;BMP280;72039;48.812;8.198;2023-11-18T22:27:16;100372.75;;;9.63
82400;BMP280;72039;48.812;8.198;2023-11-18T22:29:42;100365.25;;;9.66
82400;BMP280;72039;48.812;8.198;2023-11-18T22:32:09;100353.56;;;9.67
82400;BMP280;72039;48.812;8.198;2023-11-18T22:34:36;100352.34;;;9.70
82400;BMP280;72039;48.812;8.198;2023-11-18T22:37:06;100364.97;;;9.74
82400;BMP280;72039;48.812;8.198;2023-11-18T22:39:34;100360.22;;;9.76
82400;BMP280;72039;48.812;8.198;2023-11-18T22:42:07;100365.91;;;9.78
82400;BMP280;72039;48.812;8.198;2023-11-18T22:44:33;100353.59;;;9.81
82400;BMP280;72039;48.812;8.198;2023-11-18T22:47:03;100362.63;;;9.82
82400;BMP280;72039;48.812;8.198;2023-11-18T22:49:29;100368.28;;;9.84
82400;BMP280;72039;48.812;8.198;2023-11-18T22:51:55;100365.63;;;9.86
82400;BMP280;72039;48.812;8.198;2023-11-18T22:54:21;100362.97;;;9.88
82400;BMP280;72039;48.812;8.198;2023-11-18T22:56:50;100338.09;;;9.90
82400;BMP280;72039;48.812;8.198;2023-11-18T22:59:19;100328.47;;;9.91
82400;BMP280;72039;48.812;8.198;2023-11-18T23:01:46;100322.31;;;9.92
82400;BMP280;72039;48.812;8.198;2023-11-18T23:04:12;100308.44;;;9.92
82400;BMP280;72039;48.812;8.198;2023-11-18T23:06:40;100321.59;;;9.92
82400;BMP280;72039;48.812;8.198;2023-11-18T23:09:08;100327.13;;;9.92
82400;BMP280;72039;48.812;8.198;2023-11-18T23:11:38;100315.41;;;9.93
82400;BMP280;72039;48.812;8.198;2023-11-18T23:14:04;100320.25;;;9.93
82400;BMP280;72039;48.812;8.198;2023-11-18T23:16:30;100329.28;;;9.93
82400;BMP280;72039;48.812;8.198;2023-11-18T23:18:55;100326.00;;;9.97
82400;BMP280;72039;48.812;8.198;2023-11-18T23:21:23;100341.31;;;9.98
82400;BMP280;72039;48.812;8.198;2023-11-18T23:23:54;100341.31;;;9.98
82400;BMP280;72039;48.812;8.198;2023-11-18T23:26:21;100338.66;;;10.00
82400;BMP280;72039;48.812;8.198;2023-11-18T23:28:46;100333.91;;;10.03
82400;BMP280;72039;48.812;8.198;2023-11-18T23:31:12;100332.56;;;10.04
82400;BMP280;72039;48.812;8.198;2023-11-18T23:33:41;100326.41;;;10.05
82400;BMP280;72039;48.812;8.198;2023-11-18T23:36:06;100317.50;;;10.07
82400;BMP280;72039;48.812;8.198;2023-11-18T23:38:33;100314.84;;;10.09
82400;BMP280;72039;48.812;8.198;2023-11-18T23:40:59;100325.28;;;10.10
82400;BMP280;72039;48.812;8.198;2023-11-18T23:43:27;100307.31;;;10.11
82400;BMP280;72039;48.812;8.198;2023-11-18T23:45:56;100310.22;;;10.13
82400;BMP280;72039;48.812;8.198;2023-11-18T23:48:22;100315.88;;;10.15
82400;BMP280;72039;48.812;8.198;2023-11-18T23:50:49;100328.47;;;10.18
82400;BMP280;72039;48.812;8.198;2023-11-18T23:53:15;100318.19;;;10.21
82400;BMP280;72039;48.812;8.198;2023-11-18T23:55:45;100319.75;;;10.24
82400;BMP280;72039;48.812;8.198;2023-11-18T23:58:13;100310.81;;;10.26
